Terminal Aerodrome Forecast
Issued by NWS Quad Cities IA IL

Home | Current Version | Previous Version | Text Only | Print | Product List | Glossary On
Versions: 1 2 3 4 5 6 7 8 9 10 11 12 13 14 15 16 17 18
109
FTUS43 KDVN 262340
TAFMLI
TAF
KMLI 262340Z 2700/2724 25008KT 4SM TSRA BKN025CB OVC060
     FM270100 VRB04KT P6SM BKN040
     FM270500 06003KT 6SM BR BKN035
      TEMPO 2708/2712 2SM BR OVC015
     FM271400 03009KT P6SM BKN050=

USA.gov is the U.S. government's official web portal to all federal, state and local government web resources and services.